createdAt,value
2019-06-07T00:00:39.356Z,21.03
2019-06-07T00:03:00.543Z,23.17
2019-06-07T00:05:28.946Z,23.87
2019-06-07T00:08:07.119Z,25.33
2019-06-07T00:10:36.744Z,28.27
2019-06-07T00:12:58.030Z,27.70
2019-06-07T00:15:29.200Z,25.17
2019-06-07T00:17:56.591Z,24.93
2019-06-07T00:20:25.075Z,25.50
2019-06-07T00:22:53.285Z,24.13
2019-06-07T00:25:24.452Z,26.13
2019-06-07T00:27:51.910Z,27.53
2019-06-07T00:30:40.096Z,26.00
2019-06-07T00:32:51.217Z,26.67
2019-06-07T00:35:22.355Z,27.60
2019-06-07T00:37:50.795Z,27.70
2019-06-07T00:40:31.363Z,28.00
2019-06-07T00:42:51.918Z,26.00
2019-06-07T00:45:22.429Z,24.87
2019-06-07T00:47:50.245Z,26.83
2019-06-07T00:50:21.910Z,25.97
2019-06-07T00:55:22.227Z,23.20
2019-06-07T00:57:49.343Z,24.33
2019-06-07T01:00:22.311Z,24.83
2019-06-07T01:02:49.069Z,24.10
2019-06-07T01:05:20.301Z,24.23
2019-06-07T01:07:47.492Z,24.17
2019-06-07T01:10:46.458Z,23.90
2019-06-07T01:12:47.527Z,24.40
2019-06-07T01:15:22.196Z,25.13
2019-06-07T01:18:33.154Z,26.07
2019-06-07T01:20:23.824Z,25.50
2019-06-07T01:22:49.653Z,25.90
2019-06-07T01:25:18.909Z,26.80
2019-06-07T01:27:48.366Z,25.87
2019-06-07T01:30:18.766Z,24.67
2019-06-07T01:32:47.480Z,25.03
2019-06-07T01:35:16.618Z,25.50
2019-06-07T01:37:44.882Z,25.43
2019-06-07T01:40:14.033Z,25.87
2019-06-07T01:42:42.356Z,24.80
2019-06-07T01:45:11.486Z,26.00
2019-06-07T01:47:39.680Z,25.20
2019-06-07T01:50:08.635Z,23.63
2019-06-07T01:52:37.853Z,25.23
2019-06-07T01:55:06.887Z,23.20
2019-06-07T01:57:47.585Z,24.00
2019-06-07T02:00:06.796Z,23.23
2019-06-07T02:02:35.095Z,24.33
2019-06-07T02:05:05.079Z,24.33
2019-06-07T02:07:33.479Z,25.13
2019-06-07T02:10:02.059Z,25.80
2019-06-07T02:12:40.356Z,26.97
2019-06-07T02:15:03.311Z,25.13
2019-06-07T02:17:33.278Z,26.23
2019-06-07T02:20:01.745Z,26.10
2019-06-07T02:22:32.389Z,26.43
2019-06-07T02:27:32.774Z,26.70
2019-06-07T02:30:35.219Z,26.27
2019-06-07T02:32:34.683Z,27.03
2019-06-07T02:35:01.405Z,28.27
2019-06-07T02:37:35.875Z,27.40
2019-06-07T02:40:00.046Z,26.43
2019-06-07T02:42:34.600Z,26.67
2019-06-07T02:44:58.470Z,27.13
2019-06-07T02:47:30.876Z,26.67
2019-06-07T02:50:28.299Z,25.70
2019-06-07T02:53:11.964Z,23.60
2019-06-07T02:56:33.206Z,24.23
2019-06-07T02:58:11.805Z,24.37
2019-06-07T03:01:06.493Z,24.80
2019-06-07T03:03:18.692Z,23.57
2019-06-07T03:05:47.905Z,26.93
2019-06-07T03:08:17.091Z,29.73
2019-06-07T03:10:48.361Z,28.80
2019-06-07T03:13:19.176Z,29.00
2019-06-07T03:15:50.376Z,27.80
2019-06-07T03:18:41.526Z,29.03
2019-06-07T03:21:15.525Z,30.53
2019-06-07T03:23:45.863Z,28.73
2019-06-07T03:26:17.098Z,28.73
2019-06-07T03:28:45.915Z,29.27
2019-06-07T03:31:14.154Z,28.17
2019-06-07T03:33:45.303Z,27.40
2019-06-07T03:36:23.240Z,26.90
2019-06-07T03:38:42.556Z,27.03
2019-06-07T03:41:10.933Z,32.07
2019-06-07T03:43:40.740Z,29.03
2019-06-07T03:46:09.278Z,26.07
2019-06-07T03:48:41.180Z,27.57
2019-06-07T03:51:23.951Z,29.30
2019-06-07T03:53:40.838Z,31.90
2019-06-07T03:56:08.513Z,32.37
2019-06-07T03:58:48.551Z,34.27
2019-06-07T04:01:07.052Z,35.77
2019-06-07T04:03:43.546Z,36.73
2019-06-07T04:06:05.686Z,30.17
2019-06-07T04:08:38.300Z,31.50
2019-06-07T04:11:04.035Z,34.30
2019-06-07T04:13:36.780Z,30.37
2019-06-07T04:16:05.388Z,29.50
2019-06-07T04:18:35.653Z,26.80
2019-06-07T04:21:03.717Z,28.17
2019-06-07T04:23:35.288Z,24.37
2019-06-07T04:26:02.063Z,23.83
2019-06-07T04:29:24.854Z,28.10
2019-06-07T04:31:00.494Z,24.60
2019-06-07T04:33:28.941Z,22.87
2019-06-07T04:35:58.024Z,21.03
2019-06-07T04:38:29.489Z,20.03
2019-06-07T04:40:58.859Z,20.50
2019-06-07T04:43:31.043Z,16.77
2019-06-07T04:46:01.555Z,16.57
2019-06-07T04:48:33.405Z,15.57
2019-06-07T04:51:04.277Z,15.10
2019-06-07T04:53:35.320Z,14.30
2019-06-07T04:56:02.881Z,13.07
2019-06-07T04:58:31.484Z,13.97
2019-06-07T05:01:03.530Z,13.33
2019-06-07T05:03:35.010Z,13.20
2019-06-07T05:06:01.141Z,12.87
2019-06-07T05:08:31.485Z,13.60
2019-06-07T05:10:59.586Z,13.00
2019-06-07T05:13:27.773Z,13.30
2019-06-07T05:15:56.076Z,13.47
2019-06-07T05:18:24.575Z,13.20
2019-06-07T05:20:52.973Z,13.87
2019-06-07T05:23:59.892Z,12.83
2019-06-07T05:25:51.489Z,13.07
2019-06-07T05:28:19.686Z,13.47
2019-06-07T05:31:03.935Z,13.03
2019-06-07T05:33:18.008Z,13.80
2019-06-07T05:35:46.199Z,15.10
2019-06-07T05:38:14.693Z,15.00
2019-06-07T05:40:48.836Z,14.27
2019-06-07T05:43:35.119Z,14.87
2019-06-07T05:46:04.104Z,15.97
2019-06-07T05:48:32.496Z,15.03
2019-06-07T05:51:19.019Z,14.87
2019-06-07T05:53:47.611Z,14.10
2019-06-07T05:56:16.339Z,14.03
2019-06-07T05:58:44.932Z,13.77
2019-06-07T06:01:42.046Z,13.33
2019-06-07T06:03:46.531Z,13.30
2019-06-07T06:06:14.463Z,13.03
2019-06-07T06:08:45.337Z,13.03
2019-06-07T06:11:12.773Z,12.60
2019-06-07T06:14:03.553Z,14.67
2019-06-07T06:16:11.288Z,15.00
2019-06-07T06:18:40.760Z,13.77
2019-06-07T06:21:19.252Z,13.57
2019-06-07T06:23:42.487Z,13.68
2019-06-07T06:26:11.209Z,13.62
2019-06-07T06:28:40.106Z,13.72
2019-06-07T06:31:08.518Z,13.75
2019-06-07T06:33:37.471Z,13.75
2019-06-07T06:36:06.880Z,13.67
2019-06-07T06:38:35.255Z,13.50
2019-06-07T06:41:15.330Z,13.32
2019-06-07T06:43:33.943Z,13.25
2019-06-07T06:46:02.175Z,13.05
2019-06-07T06:48:30.405Z,12.25
2019-06-07T06:50:58.761Z,12.25
2019-06-07T06:53:26.977Z,13.58
2019-06-07T06:55:55.330Z,14.75
2019-06-07T06:58:23.553Z,12.45
2019-06-07T07:01:05.289Z,12.85
2019-06-07T07:03:57.601Z,9.53
2019-06-07T07:05:55.045Z,9.83
2019-06-07T07:08:24.195Z,9.83
2019-06-07T07:10:54.417Z,10.43
2019-06-07T07:13:22.626Z,10.18
2019-06-07T07:15:57.224Z,10.25
2019-06-07T07:18:21.183Z,9.53
2019-06-07T07:20:51.310Z,9.70
2019-06-07T07:23:19.802Z,8.30
2019-06-07T07:25:55.494Z,8.50
2019-06-07T07:28:18.287Z,7.75
2019-06-07T07:30:52.657Z,7.45
2019-06-07T07:33:19.155Z,8.05
2019-06-07T07:36:11.074Z,6.95
2019-06-07T07:38:18.350Z,7.20
2019-06-07T07:41:14.093Z,6.97
2019-06-07T07:43:16.970Z,6.47
2019-06-07T07:45:50.517Z,6.90
2019-06-07T07:48:18.635Z,6.97
2019-06-07T07:50:49.909Z,7.35
2019-06-07T07:53:16.994Z,7.80
2019-06-07T07:55:49.483Z,6.87
2019-06-07T07:58:15.396Z,7.20
2019-06-07T08:01:00.152Z,7.20
2019-06-07T08:03:13.846Z,6.87
2019-06-07T08:05:43.475Z,6.58
2019-06-07T08:08:12.284Z,6.25
2019-06-07T08:10:40.531Z,6.40
2019-06-07T08:13:26.869Z,6.80
2019-06-07T08:15:39.095Z,6.97
2019-06-07T08:18:07.488Z,6.67
2019-06-07T08:20:35.815Z,6.83
2019-06-07T08:23:04.046Z,6.22
2019-06-07T08:25:32.465Z,6.70
2019-06-07T08:28:01.760Z,6.50
2019-06-07T08:33:24.175Z,6.20
2019-06-07T08:36:03.624Z,5.70
2019-06-07T08:38:25.109Z,5.70
2019-06-07T08:40:31.199Z,6.45
2019-06-07T08:43:15.120Z,5.80
2019-06-07T08:45:30.921Z,5.42
2019-06-07T08:48:05.428Z,6.08
2019-06-07T08:50:29.568Z,5.78
2019-06-07T08:53:05.117Z,5.78
2019-06-07T08:55:28.048Z,6.17
2019-06-07T08:58:02.403Z,6.12
2019-06-07T09:00:45.612Z,6.42
2019-06-07T09:02:58.896Z,6.03
2019-06-07T09:05:27.285Z,6.22
2019-06-07T09:08:21.129Z,6.78
2019-06-07T09:10:25.743Z,6.70
2019-06-07T09:12:59.389Z,6.37
2019-06-07T09:15:24.637Z,6.78
2019-06-07T09:18:34.879Z,5.95
2019-06-07T09:20:36.201Z,6.83
2019-06-07T09:22:58.950Z,6.03
2019-06-07T09:25:25.751Z,6.47
2019-06-07T09:27:54.165Z,6.00
2019-06-07T09:30:39.724Z,6.28
2019-06-07T09:33:09.075Z,6.30
2019-06-07T09:35:39.057Z,6.67
2019-06-07T09:38:23.194Z,6.40
2019-06-07T09:40:39.035Z,6.50
2019-06-07T09:43:55.507Z,6.08
2019-06-07T09:45:37.763Z,5.47
2019-06-07T09:48:13.593Z,5.75
2019-06-07T09:50:36.278Z,5.72
2019-06-07T09:53:19.048Z,6.20
2019-06-07T09:55:35.466Z,5.78
2019-06-07T09:58:45.380Z,5.85
2019-06-07T10:00:40.718Z,5.97
2019-06-07T10:03:16.408Z,5.25
2019-06-07T10:05:35.050Z,5.80
2019-06-07T10:08:22.340Z,5.83
2019-06-07T10:13:04.141Z,6.53
2019-06-07T10:15:32.852Z,5.22
2019-06-07T10:18:02.680Z,5.35
2019-06-07T10:20:31.292Z,5.40
2019-06-07T10:22:59.668Z,5.75
2019-06-07T10:25:28.156Z,5.15
2019-06-07T10:27:56.591Z,6.00
2019-06-07T10:30:25.918Z,5.30
2019-06-07T10:32:54.414Z,6.00
2019-06-07T10:35:23.638Z,5.62
2019-06-07T10:37:51.971Z,5.87
2019-06-07T10:40:20.400Z,5.42
2019-06-07T10:42:48.620Z,5.08
2019-06-07T10:45:17.762Z,5.22
2019-06-07T10:47:46.008Z,4.85
2019-06-07T10:50:14.725Z,5.45
2019-06-07T10:52:42.937Z,5.42
2019-06-07T10:55:11.296Z,5.50
2019-06-07T10:57:40.531Z,5.20
2019-06-07T11:00:11.721Z,4.60
2019-06-07T11:02:40.475Z,5.22
2019-06-07T11:05:12.322Z,4.80
2019-06-07T11:07:40.704Z,4.80
2019-06-07T11:10:15.621Z,4.87
2019-06-07T11:12:39.568Z,4.83
2019-06-07T11:15:08.811Z,4.80
2019-06-07T11:17:37.291Z,4.85
2019-06-07T11:20:08.048Z,4.65
2019-06-07T11:22:36.666Z,4.97
2019-06-07T11:25:06.881Z,4.37
2019-06-07T11:27:35.836Z,5.17
2019-06-07T11:30:06.211Z,5.15
2019-06-07T11:32:34.641Z,4.70
2019-06-07T11:35:21.316Z,4.60
2019-06-07T11:37:49.670Z,4.58
2019-06-07T11:40:34.844Z,3.77
2019-06-07T11:42:52.737Z,3.80
2019-06-07T11:45:20.484Z,4.22
2019-06-07T11:47:48.704Z,3.92
2019-06-07T11:50:17.670Z,3.98
2019-06-07T11:52:46.591Z,4.20
2019-06-07T11:55:16.144Z,3.92
2019-06-07T11:57:44.500Z,4.42
2019-06-07T12:00:16.836Z,4.03
2019-06-07T12:02:46.415Z,4.55
2019-06-07T12:05:18.388Z,4.10
2019-06-07T12:07:45.619Z,4.60
2019-06-07T12:10:18.006Z,4.05
2019-06-07T12:12:44.636Z,3.80
2019-06-07T12:15:15.018Z,4.35
2019-06-07T12:17:43.682Z,4.30
2019-06-07T12:20:14.746Z,4.35
2019-06-07T12:22:43.374Z,4.78
2019-06-07T12:25:16.107Z,4.10
2019-06-07T12:27:42.838Z,4.15
2019-06-07T12:30:18.142Z,4.30
2019-06-07T12:32:41.658Z,3.92
2019-06-07T12:35:11.344Z,4.00
2019-06-07T12:37:44.400Z,3.70
2019-06-07T12:40:22.267Z,3.77
2019-06-07T12:42:42.516Z,3.95
2019-06-07T12:45:12.962Z,3.92
2019-06-07T12:47:42.381Z,3.65
2019-06-07T12:50:11.307Z,3.47
2019-06-07T12:52:39.694Z,3.72
2019-06-07T12:55:08.811Z,3.60
2019-06-07T12:57:37.436Z,3.70
2019-06-07T13:00:07.668Z,3.70
2019-06-07T13:02:36.113Z,3.22
2019-06-07T13:05:06.089Z,3.72
2019-06-07T13:07:34.449Z,4.20
2019-06-07T13:10:03.141Z,2.90
2019-06-07T13:12:31.518Z,4.12
2019-06-07T13:14:59.839Z,3.37
2019-06-07T13:17:28.630Z,3.30
2019-06-07T13:19:57.005Z,3.37
2019-06-07T13:22:25.376Z,3.10
2019-06-07T13:24:53.634Z,3.20
2019-06-07T13:27:22.514Z,3.33
2019-06-07T13:29:50.897Z,3.37
2019-06-07T13:32:19.578Z,3.17
2019-06-07T13:34:47.856Z,3.42
2019-06-07T13:37:16.931Z,3.30
2019-06-07T13:39:45.567Z,2.95
2019-06-07T13:42:14.280Z,3.20
2019-06-07T13:44:44.152Z,2.83
2019-06-07T13:47:12.476Z,3.50
2019-06-07T13:49:41.038Z,3.30
2019-06-07T13:52:09.608Z,3.20
2019-06-07T13:54:38.071Z,3.08
2019-06-07T13:57:06.355Z,3.40
2019-06-07T13:59:34.671Z,3.15
2019-06-07T14:02:03.102Z,3.50
2019-06-07T14:04:31.503Z,3.30
2019-06-07T14:06:59.914Z,3.62
2019-06-07T14:09:29.758Z,2.77
2019-06-07T14:11:58.171Z,2.85
2019-06-07T14:14:27.432Z,3.55
2019-06-07T14:16:56.726Z,2.95
2019-06-07T14:19:26.406Z,2.90
2019-06-07T14:21:54.772Z,3.17
2019-06-07T14:24:23.038Z,2.83
2019-06-07T14:27:10.824Z,3.05
2019-06-07T14:29:57.678Z,3.00
2019-06-07T14:32:26.581Z,2.98
2019-06-07T14:34:54.893Z,3.02
2019-06-07T14:37:23.167Z,2.75
2019-06-07T14:39:52.058Z,3.00
2019-06-07T14:42:20.290Z,3.00
2019-06-07T14:44:48.730Z,2.77
2019-06-07T14:47:17.131Z,2.77
2019-06-07T14:49:45.482Z,2.60
2019-06-07T14:52:13.723Z,2.65
2019-06-07T14:54:42.031Z,2.70
2019-06-07T14:57:10.264Z,2.92
2019-06-07T14:59:39.479Z,2.40
2019-06-07T15:02:07.951Z,3.22
2019-06-07T15:04:41.187Z,2.87
2019-06-07T15:07:13.271Z,2.60
2019-06-07T15:09:41.892Z,2.58
2019-06-07T15:12:24.116Z,2.60
2019-06-07T15:14:40.860Z,2.83
2019-06-07T15:17:09.101Z,2.50
2019-06-07T15:19:37.362Z,2.80
2019-06-07T15:22:05.704Z,2.50
2019-06-07T15:24:37.108Z,2.90
2019-06-07T15:27:04.373Z,2.60
2019-06-07T15:29:33.790Z,2.70
2019-06-07T15:32:02.363Z,2.67
2019-06-07T15:34:32.287Z,2.77
2019-06-07T15:37:00.699Z,3.05
2019-06-07T15:39:30.207Z,3.20
2019-06-07T15:41:58.759Z,2.95
2019-06-07T15:44:27.084Z,3.12
2019-06-07T15:46:55.526Z,2.90
2019-06-07T15:49:23.869Z,3.00
2019-06-07T15:51:52.398Z,3.40
2019-06-07T15:54:20.668Z,2.85
2019-06-07T15:56:48.996Z,3.55
2019-06-07T15:59:17.306Z,3.05
2019-06-07T16:01:45.589Z,3.90
2019-06-07T16:04:13.956Z,3.02
2019-06-07T16:06:43.519Z,3.12
2019-06-07T16:09:12.123Z,3.25
2019-06-07T16:11:41.447Z,2.90
2019-06-07T16:14:10.292Z,2.80
2019-06-07T16:16:38.990Z,3.17
2019-06-07T16:19:07.302Z,2.98
2019-06-07T16:21:37.364Z,3.30
2019-06-07T16:24:05.798Z,2.90
2019-06-07T16:26:34.305Z,3.10
2019-06-07T16:29:03.171Z,2.92
2019-06-07T16:31:31.657Z,2.92
2019-06-07T16:33:59.976Z,2.92
2019-06-07T16:36:28.206Z,2.98
2019-06-07T16:38:56.796Z,2.67
2019-06-07T16:41:25.161Z,3.10
2019-06-07T16:43:54.528Z,2.70
2019-06-07T16:46:23.165Z,3.08
2019-06-07T16:48:51.394Z,2.70
2019-06-07T16:51:19.837Z,3.00
2019-06-07T16:53:48.594Z,2.80
2019-06-07T16:56:16.935Z,2.90
2019-06-07T16:58:51.014Z,3.00
2019-06-07T17:01:19.457Z,2.92
2019-06-07T17:03:47.715Z,2.60
2019-06-07T17:06:16.141Z,2.80
2019-06-07T17:08:44.597Z,2.83
2019-06-07T17:11:12.861Z,3.10
2019-06-07T17:13:42.334Z,3.42
2019-06-07T17:16:10.693Z,3.00
2019-06-07T17:18:39.175Z,2.95
2019-06-07T17:21:07.466Z,2.77
2019-06-07T17:23:35.803Z,2.67
2019-06-07T17:26:04.246Z,2.62
2019-06-07T17:28:32.722Z,2.75
2019-06-07T17:31:00.939Z,2.65
2019-06-07T17:33:29.502Z,2.37
2019-06-07T17:35:57.997Z,2.80
2019-06-07T17:38:26.338Z,2.98
2019-06-07T17:41:12.779Z,3.10
2019-06-07T17:43:55.156Z,2.83
2019-06-07T17:46:11.391Z,2.70
2019-06-07T17:48:39.906Z,2.80
2019-06-07T17:51:08.223Z,3.05
2019-06-07T17:53:36.561Z,3.02
2019-06-07T17:56:04.951Z,2.85
2019-06-07T17:58:33.188Z,2.60
2019-06-07T18:01:01.621Z,2.75
2019-06-07T18:03:30.058Z,2.60
2019-06-07T18:06:00.591Z,2.77
2019-06-07T18:08:29.951Z,2.37
2019-06-07T18:10:58.336Z,2.77
2019-06-07T18:13:26.685Z,2.70
2019-06-07T18:15:59.273Z,2.80
2019-06-07T18:18:25.280Z,2.47
2019-06-07T18:20:53.661Z,2.70
2019-06-07T18:23:21.945Z,2.85
2019-06-07T18:25:50.535Z,2.77
2019-06-07T18:28:18.966Z,2.50
2019-06-07T18:30:48.677Z,3.08
2019-06-07T18:33:17.136Z,3.00
2019-06-07T18:35:46.859Z,3.00
2019-06-07T18:38:15.347Z,2.72
2019-06-07T18:40:43.646Z,2.98
2019-06-07T18:43:12.006Z,3.17
2019-06-07T18:45:40.512Z,2.83
2019-06-07T18:48:08.894Z,2.80
2019-06-07T18:50:37.376Z,2.60
2019-06-07T18:53:23.645Z,3.02
2019-06-07T18:55:52.276Z,2.70
2019-06-07T18:58:20.956Z,3.12
2019-06-07T19:00:49.926Z,2.92
2019-06-07T19:03:18.613Z,2.95
2019-06-07T19:05:48.048Z,2.58
2019-06-07T19:08:16.600Z,2.70
2019-06-07T19:10:45.962Z,3.08
2019-06-07T19:13:14.501Z,2.90
2019-06-07T19:15:43.505Z,3.20
2019-06-07T19:18:11.779Z,3.00
2019-06-07T19:20:40.129Z,3.10
2019-06-07T19:23:08.638Z,3.10
2019-06-07T19:25:36.868Z,2.95
2019-06-07T19:28:05.266Z,2.95
2019-06-07T19:30:33.920Z,2.83
2019-06-07T19:33:02.196Z,3.08
2019-06-07T19:35:30.600Z,2.40
2019-06-07T19:37:59.960Z,3.02
2019-06-07T19:40:28.418Z,3.05
2019-06-07T19:42:56.672Z,3.20
2019-06-07T19:45:30.169Z,2.80
2019-06-07T19:47:56.550Z,2.87
2019-06-07T19:50:26.128Z,3.02
2019-06-07T19:52:54.998Z,2.92
2019-06-07T19:55:23.326Z,2.90
2019-06-07T19:57:51.737Z,2.67
2019-06-07T20:00:20.459Z,2.98
2019-06-07T20:02:48.877Z,3.08
2019-06-07T20:05:20.177Z,2.83
2019-06-07T20:07:48.759Z,2.90
2019-06-07T20:10:17.635Z,2.92
2019-06-07T20:12:46.047Z,2.92
2019-06-07T20:15:27.831Z,3.20
2019-06-07T20:17:45.297Z,3.12
2019-06-07T20:20:13.668Z,3.00
2019-06-07T20:22:42.114Z,3.00
2019-06-07T20:25:11.373Z,2.75
2019-06-07T20:27:59.462Z,3.17
2019-06-07T20:30:28.180Z,2.90
2019-06-07T20:32:57.669Z,2.87
2019-06-07T20:35:26.219Z,2.80
2019-06-07T20:37:54.673Z,3.00
2019-06-07T20:40:24.860Z,3.10
2019-06-07T20:42:53.233Z,2.85
2019-06-07T20:45:33.296Z,2.90
2019-06-07T20:47:52.289Z,2.80
2019-06-07T20:50:20.526Z,3.27
2019-06-07T20:52:49.007Z,3.10
2019-06-07T20:55:17.666Z,3.00
2019-06-07T20:57:46.006Z,2.75
2019-06-07T21:00:21.387Z,2.72
2019-06-07T21:02:44.833Z,2.97
2019-06-07T21:05:13.405Z,3.50
2019-06-07T21:07:41.784Z,3.08
2019-06-07T21:10:10.856Z,3.00
2019-06-07T21:12:39.373Z,2.80
2019-06-07T21:15:12.114Z,2.90
2019-06-07T21:17:38.533Z,2.90
2019-06-07T21:20:09.905Z,3.20
2019-06-07T21:22:37.662Z,2.70
2019-06-07T21:25:07.308Z,2.67
2019-06-07T21:27:35.826Z,3.00
2019-06-07T21:30:05.203Z,3.10
2019-06-07T21:32:33.761Z,2.90
2019-06-07T21:35:02.147Z,2.87
2019-06-07T21:37:30.628Z,3.10
2019-06-07T21:39:58.911Z,3.00
2019-06-07T21:42:27.246Z,3.00
2019-06-07T21:44:55.566Z,2.90
2019-06-07T21:47:24.017Z,2.90
2019-06-07T21:49:52.326Z,2.93
2019-06-07T21:52:20.678Z,2.97
2019-06-07T21:54:49.003Z,2.77
2019-06-07T21:57:17.635Z,3.10
2019-06-07T21:59:45.973Z,3.33
2019-06-07T22:02:14.654Z,3.83
2019-06-07T22:04:43.973Z,3.43
2019-06-07T22:07:13.585Z,3.13
2019-06-07T22:09:42.231Z,3.70
2019-06-07T22:12:10.565Z,3.67
2019-06-07T22:14:38.772Z,3.40
2019-06-07T22:17:08.180Z,4.00
2019-06-07T22:19:36.476Z,3.67
2019-06-07T22:22:22.593Z,3.70
2019-06-07T22:24:50.789Z,3.50
2019-06-07T22:27:19.086Z,3.67
2019-06-07T22:29:47.439Z,3.40
2019-06-07T22:32:15.741Z,3.47
2019-06-07T22:34:43.975Z,3.10
2019-06-07T22:37:15.633Z,3.37
2019-06-07T22:39:42.616Z,3.43
2019-06-07T22:42:13.468Z,3.50
2019-06-07T22:44:41.957Z,3.43
2019-06-07T22:47:10.309Z,3.37
2019-06-07T22:49:38.635Z,3.27
2019-06-07T22:52:09.309Z,3.23
2019-06-07T22:54:37.971Z,3.20
2019-06-07T22:57:16.622Z,3.53
2019-06-07T22:59:45.376Z,3.77
2019-06-07T23:02:14.659Z,3.17
2019-06-07T23:04:42.907Z,3.57
2019-06-07T23:07:11.356Z,3.53
2019-06-07T23:09:39.695Z,3.57
2019-06-07T23:12:09.113Z,3.67
2019-06-07T23:14:37.538Z,3.00
2019-06-07T23:17:05.918Z,2.80
2019-06-07T23:19:34.222Z,3.17
2019-06-07T23:22:02.593Z,3.50
2019-06-07T23:24:30.908Z,3.27
2019-06-07T23:26:59.208Z,3.53
2019-06-07T23:29:27.609Z,3.37
2019-06-07T23:31:55.827Z,3.50
2019-06-07T23:34:24.045Z,3.53
2019-06-07T23:36:52.386Z,3.53
2019-06-07T23:39:22.365Z,3.83
2019-06-07T23:41:50.690Z,4.03
2019-06-07T23:44:19.358Z,4.00
2019-06-07T23:46:47.667Z,3.70
2019-06-07T23:49:15.861Z,3.50
2019-06-07T23:51:44.269Z,3.90
2019-06-07T23:54:13.725Z,3.97
2019-06-07T23:56:41.988Z,3.40
2019-06-07T23:59:10.396Z,3.60
